Time;durP1;ratioP1;P1;durP2;ratioP2;P2;SDS_P1;SDS_P2;PMS_P1;PMS_P2;Temp;Humidity;BMP_temperature;BMP_pressure;BME280_temperature;BME280_humidity;BME280_pressure;Samples;Min_cycle;Max_cycle;Signal;HPM_P1;HPM_P2
2021/04/05 00:00:12;;;;;;;9.88;4.82;;;;;;;23.12;21.60;96117.13;5068297;28;20044;-57
2021/04/05 00:02:37;;;;;;;9.70;5.20;;;;;;;23.10;21.71;96124.00;5068638;28;20539;-58
2021/04/05 00:05:14;;;;;;;8.00;4.22;;;;;;;23.06;21.76;96116.41;5068199;28;20087;-57
2021/04/05 00:07:44;;;;;;;8.25;4.32;;;;;;;23.05;21.71;96114.00;5068185;28;20052;-58
2021/04/05 00:10:11;;;;;;;9.15;4.75;;;;;;;23.03;21.76;96113.50;5068623;28;20099;-57
2021/04/05 00:12:36;;;;;;;8.52;4.90;;;;;;;23.02;21.82;96109.16;5081776;28;20784;-57
2021/04/05 00:15:04;;;;;;;7.25;4.32;;;;;;;23.00;21.86;96108.63;5067833;28;20086;-57
2021/04/05 00:17:29;;;;;;;8.93;4.15;;;;;;;22.97;21.77;96111.97;5067797;28;20044;-57
2021/04/05 00:19:55;;;;;;;7.75;4.30;;;;;;;22.96;21.67;96110.34;5068240;28;20059;-57
2021/04/05 00:22:20;;;;;;;7.45;3.85;;;;;;;22.94;21.78;96109.84;5068474;28;20135;-57
2021/04/05 00:24:46;;;;;;;6.55;3.78;;;;;;;22.92;21.58;96101.13;5068013;28;20129;-56
2021/04/05 00:27:11;;;;;;;6.20;3.65;;;;;;;22.90;21.85;96097.91;5067758;28;20731;-58
2021/04/05 00:29:37;;;;;;;6.15;3.60;;;;;;;22.87;21.70;96099.34;5047499;28;20065;-57
2021/04/05 00:32:03;;;;;;;5.63;3.50;;;;;;;22.85;21.64;96098.81;5047619;28;20072;-56
2021/04/05 00:34:29;;;;;;;5.40;3.42;;;;;;;22.83;21.75;96099.13;5067425;28;20052;-56
2021/04/05 00:36:54;;;;;;;6.25;3.72;;;;;;;22.81;21.91;96103.28;5068103;28;20134;-55
2021/04/05 00:39:20;;;;;;;5.50;3.20;;;;;;;22.80;21.74;96105.22;5068608;28;20028;-57
2021/04/05 00:41:45;;;;;;;6.07;3.63;;;;;;;22.77;21.88;96100.34;5067816;28;20055;-55
2021/04/05 00:44:11;;;;;;;5.35;3.03;;;;;;;22.75;21.75;96099.84;5081529;28;20298;-57
2021/04/05 00:46:37;;;;;;;6.15;3.30;;;;;;;22.73;21.87;96093.06;5067632;28;20052;-57
2021/04/05 00:49:02;;;;;;;4.05;2.80;;;;;;;22.69;21.77;96087.41;5062968;28;20053;-58
2021/04/05 00:51:28;;;;;;;3.90;2.60;;;;;;;22.68;21.87;96088.53;5048051;28;20045;-57
2021/04/05 00:53:53;;;;;;;4.32;3.00;;;;;;;22.65;21.87;96080.94;5062131;28;20048;-54
2021/04/05 00:56:21;;;;;;;4.97;3.22;;;;;;;22.63;21.95;96081.25;5050474;28;20075;-57
2021/04/05 00:58:47;;;;;;;4.38;3.10;;;;;;;22.61;22.00;96080.75;5065082;28;20040;-57
2021/04/05 01:01:20;;;;;;;4.68;2.85;;;;;;;22.60;22.04;96081.06;5067604;28;20063;-56
2021/04/05 01:03:46;;;;;;;4.38;3.20;;;;;;;22.58;21.92;96084.06;5066899;28;20056;-55
2021/04/05 01:06:24;;;;;;;4.40;3.00;;;;;;;22.56;21.78;96080.84;5067381;28;20331;-57
2021/04/05 01:08:49;;;;;;;4.38;3.40;;;;;;;22.54;21.84;96082.25;5067971;28;20055;-57
2021/04/05 01:11:16;;;;;;;5.25;3.00;;;;;;;22.51;21.69;96075.50;5067067;28;20419;-54
2021/04/05 01:13:45;;;;;;;3.63;2.45;;;;;;;22.49;22.04;96077.72;5067262;28;20101;-57
2021/04/05 01:16:11;;;;;;;4.22;2.63;;;;;;;22.49;21.85;96087.84;5067408;28;20045;-54
2021/04/05 01:18:38;;;;;;;4.75;2.70;;;;;;;22.48;21.92;96083.47;5067108;28;20048;-55
2021/04/05 01:21:04;;;;;;;4.75;2.60;;;;;;;22.44;21.97;96086.00;5066819;28;20106;-56
2021/04/05 01:23:30;;;;;;;4.82;3.00;;;;;;;22.42;21.94;96082.75;5066538;28;20098;-54
2021/04/05 01:25:58;;;;;;;4.15;2.70;;;;;;;22.40;21.90;96082.25;5067362;28;20056;-56
2021/04/05 01:28:24;;;;;;;3.78;2.75;;;;;;;22.37;21.90;96075.47;5066643;28;20082;-57
2021/04/05 01:30:51;;;;;;;4.57;2.78;;;;;;;22.35;22.11;96079.63;5066880;28;20052;-55
2021/04/05 01:33:18;;;;;;;3.42;2.55;;;;;;;22.33;21.91;96081.84;5065300;28;20076;-54
2021/04/05 01:35:49;;;;;;;3.17;2.10;;;;;;;22.31;22.00;96073.16;5066634;28;20105;-56
2021/04/05 01:38:24;;;;;;;3.63;2.40;;;;;;;22.29;21.77;96061.75;5066059;28;20131;-57
2021/04/05 01:40:55;;;;;;;3.47;2.67;;;;;;;22.28;21.83;96060.13;5067585;28;20162;-56
2021/04/05 01:43:21;;;;;;;2.55;2.13;;;;;;;22.25;21.96;96056.91;5067360;28;20048;-53
2021/04/05 01:45:47;;;;;;;2.88;2.35;;;;;;;22.24;21.81;96066.19;5066401;28;20086;-55
2021/04/05 01:48:15;;;;;;;3.05;2.30;;;;;;;22.22;21.73;96059.38;5065795;28;20087;-54
2021/04/05 01:50:42;;;;;;;3.95;2.40;;;;;;;22.21;21.98;96060.47;5066473;28;20491;-54
2021/04/05 01:53:07;;;;;;;3.42;2.28;;;;;;;22.19;22.03;96063.53;5065967;28;20044;-54
2021/04/05 01:55:33;;;;;;;3.63;2.20;;;;;;;22.17;21.87;96070.38;5065150;28;20106;-53
2021/04/05 01:58:00;;;;;;;2.58;2.10;;;;;;;22.15;21.83;96073.44;5066277;28;20097;-54
2021/04/05 02:00:27;;;;;;;3.33;1.98;;;;;;;22.13;21.98;96067.47;5066293;28;20056;-54
2021/04/05 02:02:56;;;;;;;3.42;2.20;;;;;;;22.12;21.80;96068.56;5065594;28;20056;-57
2021/04/05 02:05:24;;;;;;;5.03;2.90;;;;;;;22.11;21.88;96057.94;5066692;28;20067;-54
2021/04/05 02:07:49;;;;;;;5.20;3.22;;;;;;;22.08;22.10;96056.63;5066699;28;20079;-53
2021/04/05 02:10:21;;;;;;;4.93;3.20;;;;;;;22.08;22.01;96051.19;5065794;28;20496;-54
2021/04/05 02:12:47;;;;;;;5.53;3.47;;;;;;;22.07;21.86;96041.41;5065845;28;20052;-53
2021/04/05 02:15:13;;;;;;;5.55;3.13;;;;;;;22.06;22.19;96045.22;5082068;28;20135;-54
2021/04/05 02:17:39;;;;;;;5.18;3.38;;;;;;;22.04;21.91;96044.72;5065712;28;20127;-53
2021/04/05 02:20:11;;;;;;;5.82;3.15;;;;;;;22.04;22.18;96047.44;5066939;28;20120;-54
2021/04/05 02:22:41;;;;;;;5.10;3.10;;;;;;;22.04;21.74;96055.63;5066345;28;20079;-54
2021/04/05 02:25:08;;;;;;;4.43;2.90;;;;;;;22.04;22.16;96061.06;5065089;28;20048;-57
2021/04/05 02:27:33;;;;;;;3.58;2.45;;;;;;;22.02;21.86;96046.94;5080578;28;20076;-55
2021/04/05 02:29:59;;;;;;;4.88;3.00;;;;;;;22.01;22.14;96042.59;5081406;28;20090;-57
2021/04/05 02:32:24;;;;;;;4.00;2.63;;;;;;;21.99;22.12;96053.81;5065553;28;20047;-57
2021/04/05 02:34:50;;;;;;;4.75;3.10;;;;;;;21.99;21.98;96047.53;5064963;28;20048;-57
2021/04/05 02:37:16;;;;;;;3.85;3.00;;;;;;;21.97;22.05;96045.13;5063929;28;20476;-57
2021/04/05 02:39:42;;;;;;;4.47;3.00;;;;;;;21.97;21.94;96044.31;5065774;28;20762;-58
2021/04/05 02:42:08;;;;;;;3.38;2.58;;;;;;;21.96;21.97;96045.41;5065528;28;20135;-57
2021/04/05 02:44:34;;;;;;;4.82;2.53;;;;;;;21.96;21.98;96045.41;5081560;28;20076;-56
2021/04/05 02:46:59;;;;;;;4.30;2.83;;;;;;;21.96;22.00;96043.50;5080198;28;20194;-57
2021/04/05 02:49:25;;;;;;;4.13;2.58;;;;;;;21.95;22.15;96036.44;5080117;28;20046;-57
2021/04/05 02:51:51;;;;;;;4.43;2.50;;;;;;;21.96;22.04;96032.59;5065090;28;20408;-57
2021/04/05 02:54:17;;;;;;;3.53;2.40;;;;;;;21.96;22.13;96037.22;5063927;28;20067;-57
2021/04/05 02:56:43;;;;;;;3.25;2.35;;;;;;;21.95;21.92;96050.06;5065704;28;20055;-57
2021/04/05 02:59:09;;;;;;;3.80;2.50;;;;;;;21.97;22.07;96060.69;5043736;28;20132;-57
2021/04/05 03:01:34;;;;;;;3.08;2.60;;;;;;;21.97;21.78;96058.75;5045013;28;20160;-57
2021/04/05 03:04:00;;;;;;;3.80;2.28;;;;;;;21.98;22.35;96065.84;5060315;28;20066;-56
2021/04/05 03:06:29;;;;;;;5.35;2.42;;;;;;;22.00;22.35;96068.25;5045126;28;20880;-55
2021/04/05 03:08:57;;;;;;;5.05;3.05;;;;;;;21.99;21.92;96066.63;5064195;28;20097;-57
2021/04/05 03:11:22;;;;;;;5.10;3.50;;;;;;;21.99;22.14;96063.91;5064398;28;20041;-56
2021/04/05 03:13:48;;;;;;;3.50;2.70;;;;;;;22.01;22.15;96072.59;5047884;28;20075;-55
2021/04/05 03:16:19;;;;;;;5.20;2.75;;;;;;;22.00;22.06;96065.50;5065271;28;20414;-56
2021/04/05 03:18:44;;;;;;;4.72;2.75;;;;;;;22.00;22.09;96069.06;5064539;28;20094;-56
2021/04/05 03:21:10;;;;;;;4.03;2.92;;;;;;;22.02;22.02;96063.28;5063794;28;20040;-55
2021/04/05 03:23:36;;;;;;;4.18;2.90;;;;;;;22.01;22.23;96058.97;5046773;28;20037;-56
2021/04/05 03:26:01;;;;;;;4.15;2.28;;;;;;;22.03;21.86;96071.19;5046592;28;20123;-56
2021/04/05 03:28:27;;;;;;;3.20;2.45;;;;;;;22.03;22.01;96067.66;5064990;28;20051;-56
2021/04/05 03:31:10;;;;;;;3.50;2.50;;;;;;;22.04;22.01;96072.81;5065586;28;20040;-56
2021/04/05 03:33:41;;;;;;;4.07;3.10;;;;;;;22.03;22.14;96073.91;5064274;28;20057;-58
2021/04/05 03:36:46;;;;;;;3.10;2.60;;;;;;;22.03;21.80;96071.19;5064270;28;20131;-59
2021/04/05 03:39:13;;;;;;;3.03;2.10;;;;;;;22.05;22.02;96071.69;5064744;28;20391;-57
2021/04/05 03:41:41;;;;;;;2.67;2.30;;;;;;;22.04;22.00;96070.09;5064202;28;20392;-56
2021/04/05 03:44:22;;;;;;;4.32;2.22;;;;;;;22.05;22.08;96068.97;5064766;28;20048;-56
2021/04/05 03:46:48;;;;;;;3.50;2.15;;;;;;;22.06;22.03;96067.03;5065724;28;20090;-56
2021/04/05 03:50:02;;;;;;;5.15;2.90;;;;;;;22.06;22.06;96058.84;5047246;28;20127;-56
2021/04/05 03:52:30;;;;;;;3.17;2.30;;;;;;;22.06;21.87;96056.13;5050793;28;20057;-56
2021/04/05 03:55:00;;;;;;;3.15;2.63;;;;;;;22.06;21.73;96054.19;5046686;28;20053;-56
2021/04/05 03:57:32;;;;;;;3.85;2.67;;;;;;;22.06;21.96;96064.31;5063860;28;20412;-57
2021/04/05 03:59:57;;;;;;;3.65;2.28;;;;;;;22.08;21.64;96061.28;5064877;28;20051;-56
2021/04/05 04:02:36;;;;;;;3.10;2.17;;;;;;;22.07;21.73;96055.03;5048417;28;20497;-57
2021/04/05 04:05:19;;;;;;;3.13;2.33;;;;;;;22.08;22.04;96061.28;5050955;28;20102;-55
2021/04/05 04:07:52;;;;;;;3.10;2.25;;;;;;;22.08;21.91;96062.09;5067163;28;20131;-57
2021/04/05 04:10:19;;;;;;;2.55;2.10;;;;;;;22.08;21.69;96058.56;5067487;28;20543;-57
2021/04/05 04:12:47;;;;;;;3.15;2.28;;;;;;;22.08;21.73;96053.09;5050632;28;20098;-55
2021/04/05 04:15:13;;;;;;;2.15;1.88;;;;;;;22.08;21.65;96050.38;5067121;28;20040;-57
2021/04/05 04:17:38;;;;;;;3.20;2.17;;;;;;;22.08;21.67;96036.75;5049735;28;20102;-55
2021/04/05 04:20:12;;;;;;;2.40;2.03;;;;;;;22.08;21.57;96034.81;5066191;28;20029;-56
2021/04/05 04:22:38;;;;;;;2.20;1.90;;;;;;;22.09;21.80;96030.16;5067570;28;20040;-58
2021/04/05 04:25:05;;;;;;;3.33;2.08;;;;;;;22.09;21.52;96017.34;5066583;28;20285;-57
2021/04/05 04:27:31;;;;;;;2.25;2.05;;;;;;;22.09;21.76;96013.81;5067662;28;20163;-56
2021/04/05 04:29:56;;;;;;;3.22;2.60;;;;;;;22.09;21.65;96008.34;5067082;28;20127;-57
2021/04/05 04:32:23;;;;;;;2.30;2.10;;;;;;;22.11;21.57;96003.41;5067987;28;20086;-58
2021/04/05 04:34:48;;;;;;;2.13;1.92;;;;;;;22.11;21.59;96008.84;5083639;28;20462;-56
2021/04/05 04:37:14;;;;;;;2.97;1.70;;;;;;;22.10;21.65;96010.78;5066271;28;20084;-57
2021/04/05 04:39:39;;;;;;;1.70;1.58;;;;;;;22.10;21.58;96018.97;5066396;28;20087;-57
2021/04/05 04:42:06;;;;;;;2.85;1.67;;;;;;;22.09;21.44;96011.06;5049975;28;20052;-57
2021/04/05 04:44:31;;;;;;;2.63;1.92;;;;;;;22.08;21.70;96013.00;5067533;28;20495;-54
2021/04/05 04:46:57;;;;;;;2.67;1.90;;;;;;;22.08;21.53;96010.28;5067548;28;20168;-56
2021/04/05 04:49:23;;;;;;;1.63;1.48;;;;;;;22.06;21.66;96009.75;5067302;28;20094;-58
2021/04/05 04:51:48;;;;;;;1.85;1.75;;;;;;;22.03;21.55;96005.72;5068178;28;20075;-56
2021/04/05 04:54:14;;;;;;;1.88;1.65;;;;;;;22.02;21.65;96009.59;5067320;28;20478;-56
2021/04/05 04:56:39;;;;;;;3.03;1.75;;;;;;;22.01;21.43;96004.41;5067146;28;20051;-56
2021/04/05 04:59:09;;;;;;;1.77;1.40;;;;;;;22.00;21.65;96010.97;5065744;28;20048;-56
2021/04/05 05:01:41;;;;;;;1.48;1.38;;;;;;;21.97;21.51;96015.13;5067159;28;20071;-57
2021/04/05 05:04:24;;;;;;;1.90;1.75;;;;;;;21.95;21.75;96017.34;5067920;28;20052;-56
2021/04/05 05:06:49;;;;;;;1.85;1.48;;;;;;;21.94;21.91;96015.72;5050505;28;20060;-56
2021/04/05 05:09:15;;;;;;;1.52;1.42;;;;;;;21.92;21.84;96014.41;5049592;28;20058;-55
2021/04/05 05:11:41;;;;;;;2.00;1.60;;;;;;;21.91;21.59;96019.03;5049647;28;20056;-53
2021/04/05 05:14:06;;;;;;;1.30;1.20;;;;;;;21.90;21.59;96019.34;5064790;28;20085;-53
2021/04/05 05:16:32;;;;;;;1.73;1.45;;;;;;;21.89;21.57;96020.47;5065123;28;20067;-54
2021/04/05 05:18:58;;;;;;;2.63;1.45;;;;;;;21.87;21.66;96018.03;5065394;28;20044;-53
2021/04/05 05:21:33;;;;;;;2.67;2.13;;;;;;;21.85;21.59;96017.53;5067173;28;20100;-52
2021/04/05 05:24:04;;;;;;;1.92;1.80;;;;;;;21.83;21.75;96019.75;5066619;28;20055;-53
2021/04/05 05:26:31;;;;;;;2.05;1.45;;;;;;;21.82;21.78;96020.88;5066298;28;20091;-53
2021/04/05 05:28:57;;;;;;;1.70;1.60;;;;;;;21.81;21.62;96016.50;5067524;28;20045;-53
2021/04/05 05:31:23;;;;;;;2.97;1.40;;;;;;;21.80;21.61;96017.63;5048872;28;20059;-56
2021/04/05 05:33:48;;;;;;;1.45;1.30;;;;;;;21.77;21.70;96019.03;5067544;28;20162;-57
2021/04/05 05:36:17;;;;;;;2.15;1.50;;;;;;;21.75;21.82;96018.53;5065907;28;20079;-56
2021/04/05 05:38:44;;;;;;;1.55;1.45;;;;;;;21.75;21.61;96023.16;5065687;28;20052;-55
2021/04/05 05:41:24;;;;;;;2.05;1.50;;;;;;;21.73;21.80;96012.56;5065475;28;20139;-56
2021/04/05 05:43:56;;;;;;;5.78;2.67;;;;;;;21.71;22.18;96014.78;5066483;28;20036;-55
2021/04/05 05:46:43;;;;;;;2.03;1.90;;;;;;;21.68;22.14;96017.28;5066125;28;20064;-55
2021/04/05 05:49:49;;;;;;;3.45;3.10;;;;;;;21.65;22.40;96019.50;5065538;28;20602;-56
2021/04/05 05:52:30;;;;;;;2.88;2.55;;;;;;;21.65;22.36;96021.44;5066007;28;20185;-56
2021/04/05 05:55:17;;;;;;;3.47;2.42;;;;;;;21.62;22.31;96028.28;5065136;28;20512;-57
2021/04/05 05:57:46;;;;;;;3.47;2.13;;;;;;;21.62;22.47;96027.47;5065966;28;20367;-55
2021/04/05 06:00:24;;;;;;;3.00;2.38;;;;;;;21.62;22.43;96024.75;5065672;28;20125;-56
2021/04/05 06:03:14;;;;;;;2.30;2.10;;;;;;;21.63;22.32;96029.91;5065766;28;20059;-54
2021/04/05 06:05:53;;;;;;;2.17;1.98;;;;;;;21.67;22.46;96038.31;5065505;28;20044;-56
2021/04/05 06:08:26;;;;;;;2.40;2.00;;;;;;;21.74;22.34;96035.19;5066205;28;20044;-56
2021/04/05 06:11:14;;;;;;;2.42;2.10;;;;;;;21.79;22.35;96037.81;5061524;28;20119;-56
2021/04/05 06:14:32;;;;;;;2.88;2.08;;;;;;;21.86;22.22;96036.31;5063940;28;20044;-56
2021/04/05 06:17:05;;;;;;;2.90;2.08;;;;;;;21.94;22.26;96039.44;4977036;28;20054;-55
2021/04/05 06:19:41;;;;;;;1.83;1.73;;;;;;;22.03;22.18;96037.66;5056934;28;20051;-55
2021/04/05 06:22:26;;;;;;;2.63;2.03;;;;;;;22.13;22.18;96033.91;5065022;28;20052;-56
2021/04/05 06:25:19;;;;;;;1.77;1.67;;;;;;;22.21;22.08;96039.50;5065320;28;20140;-56
2021/04/05 06:27:54;;;;;;;1.83;1.73;;;;;;;22.33;22.02;96030.81;5064471;28;20487;-54
2021/04/05 06:30:52;;;;;;;1.75;1.60;;;;;;;22.44;22.10;96034.97;5066272;28;20052;-56
2021/04/05 06:33:27;;;;;;;2.40;2.20;;;;;;;22.56;21.81;96034.44;5032289;28;20098;-56
2021/04/05 06:36:18;;;;;;;1.63;1.45;;;;;;;22.66;21.64;96036.97;5065065;28;20416;-56
2021/04/05 06:38:47;;;;;;;1.90;1.70;;;;;;;22.79;21.64;96040.78;5065743;28;20072;-55
2021/04/05 06:41:36;;;;;;;1.92;1.70;;;;;;;22.92;21.68;96039.13;5065823;28;20292;-53
2021/04/05 06:44:16;;;;;;;2.17;1.63;;;;;;;23.02;21.45;96043.59;5025836;28;20097;-54
2021/04/05 06:47:19;;;;;;;1.65;1.55;;;;;;;23.14;21.32;96045.78;5065585;28;20480;-56
2021/04/05 06:50:05;;;;;;;1.60;1.50;;;;;;;23.25;21.42;96044.44;5064917;28;20427;-55
2021/04/05 06:52:49;;;;;;;1.75;1.65;;;;;;;23.34;21.28;96048.06;5064706;28;20052;-54
2021/04/05 06:55:43;;;;;;;1.53;1.43;;;;;;;23.43;21.01;96054.38;5044082;28;20045;-55
2021/04/05 06:58:26;;;;;;;1.33;1.33;;;;;;;23.52;21.22;96056.38;5044855;28;20051;-53
2021/04/05 07:01:10;;;;;;;1.90;1.70;;;;;;;23.56;20.83;96047.22;5045563;28;20531;-54
2021/04/05 07:03:38;;;;;;;1.45;1.35;;;;;;;23.67;21.12;96050.50;5045601;28;20071;-53
2021/04/05 07:06:39;;;;;;;1.38;1.27;;;;;;;23.73;21.04;96049.28;5045653;28;20522;-55
2021/04/05 07:09:18;;;;;;;2.63;1.38;;;;;;;23.78;20.94;96046.44;5013262;28;20056;-53
2021/04/05 07:12:22;;;;;;;1.75;1.65;;;;;;;23.83;21.01;96042.78;5044021;28;20056;-53
2021/04/05 07:14:57;;;;;;;3.85;1.83;;;;;;;23.86;20.86;96036.66;5046008;28;20543;-53
2021/04/05 07:17:23;;;;;;;;;;;;;;;23.89;20.89;96037.97;5045369;28;20071;-54
2021/04/05 07:20:02;;;;;;;4.72;1.48;;;;;;;23.91;20.81;96041.19;5045212;28;20397;-58
2021/04/05 07:22:51;;;;;;;3.63;1.40;;;;;;;23.92;20.79;96040.88;5045158;28;20107;-57
2021/04/05 07:25:19;;;;;;;2.03;1.70;;;;;;;23.95;20.73;96029.31;5043879;28;20460;-58
2021/04/05 07:27:51;;;;;;;1.48;1.30;;;;;;;23.97;20.69;96029.81;5044390;28;20558;-58
2021/04/05 07:30:41;;;;;;;9.90;2.05;;;;;;;23.97;20.68;96031.72;5044082;28;20389;-56
2021/04/05 07:33:14;;;;;;;2.85;1.55;;;;;;;24.00;20.63;96033.84;5043845;28;20060;-57
2021/04/05 07:35:43;;;;;;;2.65;1.60;;;;;;;24.01;20.52;96032.72;5044017;28;20045;-56
2021/04/05 07:38:23;;;;;;;2.72;1.42;;;;;;;24.04;20.73;96034.84;5046392;28;20206;-55
2021/04/05 07:41:03;;;;;;;2.20;1.92;;;;;;;24.05;20.73;96033.69;5033141;28;20471;-56
2021/04/05 07:43:53;;;;;;;5.85;1.88;;;;;;;24.07;20.94;96036.94;5032334;28;20172;-55
2021/04/05 07:46:35;;;;;;;4.38;2.35;;;;;;;24.07;20.71;96042.41;5052452;28;20423;-55
2021/04/05 07:49:01;;;;;;;6.38;2.00;;;;;;;24.08;21.46;96035.81;5047992;28;20053;-67
2021/04/05 07:51:55;;;;;;;10.48;1.98;;;;;;;24.06;21.43;96036.13;5049926;28;20153;-68
2021/04/05 07:54:26;;;;;;;5.60;3.15;;;;;;;24.06;21.07;96036.13;5063422;28;20055;-63
2021/04/05 07:57:07;;;;;;;5.10;1.90;;;;;;;24.06;21.33;96035.31;5052431;28;20053;-64
2021/04/05 07:59:44;;;;;;;3.45;1.50;;;;;;;24.05;21.58;96031.78;5069134;28;20130;-59
2021/04/05 08:02:47;;;;;;;5.80;2.17;;;;;;;24.03;21.48;96034.03;5067717;28;20131;-55
2021/04/05 08:05:36;;;;;;;6.55;1.80;;;;;;;24.04;21.61;96032.09;5068799;28;20112;-56
2021/04/05 08:08:20;;;;;;;2.15;1.98;;;;;;;24.04;21.57;96035.63;5067876;28;20098;-52
2021/04/05 08:11:07;;;;;;;5.87;2.13;;;;;;;24.06;21.50;96038.06;5068398;28;20587;-54
2021/04/05 08:13:55;;;;;;;4.80;2.30;;;;;;;24.04;21.59;96032.09;5067997;28;20059;-55
2021/04/05 08:17:18;;;;;;;3.45;2.05;;;;;;;24.01;21.59;96029.97;5053896;28;20501;-52
2021/04/05 08:19:57;;;;;;;5.82;2.40;;;;;;;24.00;21.41;96031.13;5029167;28;20056;-54
2021/04/05 08:22:26;;;;;;;3.67;2.38;;;;;;;23.98;21.52;96031.41;5068037;28;20079;-53
2021/04/05 08:25:05;;;;;;;7.70;2.63;;;;;;;23.92;21.36;96029.13;5069648;28;20538;-53
2021/04/05 08:27:43;;;;;;;5.68;2.40;;;;;;;23.91;21.23;96036.53;5068301;28;20052;-53
2021/04/05 08:30:21;;;;;;;5.05;2.40;;;;;;;23.89;21.43;96041.53;5066871;28;20488;-53
2021/04/05 08:33:10;;;;;;;3.53;2.10;;;;;;;23.85;21.06;96041.34;5067365;28;20044;-53
2021/04/05 08:35:49;;;;;;;3.90;1.92;;;;;;;23.83;20.98;96040.03;5066777;28;20048;-57
2021/04/05 08:38:20;;;;;;;3.85;2.15;;;;;;;23.82;21.40;96041.13;5067059;28;20127;-53
2021/04/05 08:41:05;;;;;;;3.83;2.10;;;;;;;23.76;20.88;96032.28;5068607;28;20511;-55
2021/04/05 08:43:52;;;;;;;4.15;2.10;;;;;;;23.78;21.12;96037.41;5051486;28;20131;-56
2021/04/05 08:46:19;;;;;;;3.78;2.10;;;;;;;23.75;21.07;96036.09;5067000;28;20059;-55
2021/04/05 08:48:52;;;;;;;4.22;1.70;;;;;;;23.75;21.02;96038.03;5066894;28;20060;-55
2021/04/05 08:51:28;;;;;;;2.63;1.88;;;;;;;23.72;21.19;96041.38;5067346;28;20056;-57
2021/04/05 08:53:56;;;;;;;5.30;2.22;;;;;;;23.69;21.19;96042.81;5067367;28;20143;-56
2021/04/05 08:56:24;;;;;;;5.45;2.60;;;;;;;23.66;21.19;96038.78;5068809;28;20087;-56
2021/04/05 08:59:02;;;;;;;7.28;2.20;;;;;;;23.64;21.02;96034.75;5067250;28;20048;-55
2021/04/05 09:01:45;;;;;;;9.52;1.88;;;;;;;23.62;21.17;96032.31;5067686;28;20079;-55
2021/04/05 09:04:11;;;;;;;7.13;2.28;;;;;;;23.62;21.12;96035.06;5033515;28;20052;-55
2021/04/05 09:07:00;;;;;;;4.50;2.10;;;;;;;23.63;21.11;96024.91;5049951;28;20088;-56
2021/04/05 09:09:26;;;;;;;7.07;2.50;;;;;;;23.62;21.32;96036.97;5037769;28;20048;-58
2021/04/05 09:11:52;;;;;;;3.80;2.20;;;;;;;23.62;21.11;96039.72;5050221;28;20078;-57
2021/04/05 09:14:18;;;;;;;9.77;3.58;;;;;;;23.60;21.26;96041.97;5050663;28;20059;-57
2021/04/05 09:17:05;;;;;;;3.72;1.80;;;;;;;23.56;21.64;96038.22;5066151;28;20052;-57
2021/04/05 09:19:49;;;;;;;7.97;2.15;;;;;;;23.55;21.64;96040.16;5050043;28;20054;-55
2021/04/05 09:22:33;;;;;;;6.17;1.77;;;;;;;23.53;21.41;96038.84;5067300;28;20397;-56
2021/04/05 09:25:39;;;;;;;4.57;1.90;;;;;;;23.48;21.56;96021.44;5066235;28;20765;-55
2021/04/05 09:28:18;;;;;;;5.35;2.10;;;;;;;23.46;21.86;96015.47;5064221;28;20069;-55
2021/04/05 09:30:57;;;;;;;4.00;2.35;;;;;;;23.44;21.72;96017.72;5054612;28;20102;-56
2021/04/05 09:33:26;;;;;;;4.72;1.90;;;;;;;23.43;21.83;96018.03;5063595;28;20056;-55
2021/04/05 09:36:14;;;;;;;4.18;2.08;;;;;;;23.42;22.17;96010.94;5046957;28;20060;-54
2021/04/05 09:39:18;;;;;;;2.78;1.60;;;;;;;23.42;21.82;96013.69;5050267;28;20045;-55
2021/04/05 09:42:04;;;;;;;4.53;2.15;;;;;;;23.40;21.93;96008.53;5045861;28;20068;-55
2021/04/05 09:44:58;;;;;;;4.38;1.83;;;;;;;23.36;22.26;96001.25;5062826;28;20098;-53
2021/04/05 09:47:43;;;;;;;2.40;1.80;;;;;;;23.35;22.15;96000.47;5058540;28;20125;-56
2021/04/05 09:50:47;;;;;;;5.20;1.88;;;;;;;23.31;22.21;95993.19;5065021;28;20083;-54
2021/04/05 09:53:28;;;;;;;222.20;171.43;;;;;;;23.29;22.74;95995.44;5065598;28;20388;-53
2021/04/05 09:55:58;;;;;;;41.08;29.40;;;;;;;23.27;22.38;95979.34;5064604;28;20053;-56
2021/04/05 09:58:36;;;;;;;25.40;20.20;;;;;;;23.25;22.49;95982.38;5064255;28;20047;-55
2021/04/05 10:01:04;;;;;;;23.10;17.67;;;;;;;23.24;22.50;95967.13;5047586;28;20072;-53
2021/04/05 10:03:30;;;;;;;23.48;16.38;;;;;;;23.23;22.59;95981.09;5065392;28;20071;-52
2021/04/05 10:05:56;;;;;;;17.45;12.70;;;;;;;23.22;22.39;95974.81;5063560;28;20542;-53
2021/04/05 10:08:25;;;;;;;17.25;13.05;;;;;;;23.23;22.40;95961.97;5064508;28;20056;-53
2021/04/05 10:10:52;;;;;;;14.20;11.30;;;;;;;23.22;22.71;95969.34;5065205;28;20115;-53
2021/04/05 10:13:19;;;;;;;17.83;12.25;;;;;;;23.23;22.75;95967.41;5048026;28;20047;-53
2021/04/05 10:15:45;;;;;;;16.38;14.52;;;;;;;23.23;22.75;95965.50;5046919;28;20052;-52
2021/04/05 10:18:12;;;;;;;17.70;12.70;;;;;;;23.25;22.75;95968.72;5046990;28;20076;-53
2021/04/05 10:20:38;;;;;;;13.95;10.80;;;;;;;23.27;22.81;95968.41;5063699;28;20667;-55
2021/04/05 10:23:09;;;;;;;14.15;10.48;;;;;;;23.30;22.82;95961.50;5062632;28;20087;-54
2021/04/05 10:25:35;;;;;;;14.00;10.75;;;;;;;23.33;22.84;95955.44;5062901;28;20118;-54
2021/04/05 10:28:02;;;;;;;16.25;13.23;;;;;;;23.37;23.03;95949.03;5064724;28;20068;-53
2021/04/05 10:30:33;;;;;;;14.75;11.95;;;;;;;23.41;23.08;95944.56;5064558;28;20052;-55
2021/04/05 10:33:15;;;;;;;17.35;11.43;;;;;;;23.47;22.98;95948.78;5065876;28;20105;-56
2021/04/05 10:35:48;;;;;;;13.35;9.80;;;;;;;23.54;23.21;95944.78;5048413;28;20051;-55
2021/04/05 10:38:16;;;;;;;12.18;8.43;;;;;;;23.58;23.15;95940.31;5056714;28;20056;-55
2021/04/05 10:40:41;;;;;;;18.55;9.40;;;;;;;23.63;23.16;95929.22;5044073;28;20098;-54
2021/04/05 10:43:12;;;;;;;17.13;10.10;;;;;;;23.70;23.09;95926.84;5043938;28;20080;-54
2021/04/05 10:45:38;;;;;;;13.27;7.88;;;;;;;23.76;22.70;95922.03;5061062;28;20063;-55
2021/04/05 10:48:26;;;;;;;10.90;7.63;;;;;;;23.81;23.02;95928.22;5045662;28;20397;-54
2021/04/05 10:50:59;;;;;;;12.68;7.07;;;;;;;23.88;22.85;95919.53;5061844;28;20045;-56
2021/04/05 10:53:26;;;;;;;11.93;7.55;;;;;;;23.96;22.82;95923.44;5066505;28;20190;-54
2021/04/05 10:55:59;;;;;;;10.00;7.90;;;;;;;24.04;22.48;95919.94;5065296;28;20052;-55
2021/04/05 10:58:28;;;;;;;8.23;6.40;;;;;;;24.10;22.49;95915.13;5064287;28;20159;-55
2021/04/05 11:00:55;;;;;;;10.18;6.75;;;;;;;24.17;22.25;95912.72;5047534;28;20040;-57
2021/04/05 11:03:26;;;;;;;8.82;6.78;;;;;;;24.25;22.69;95906.47;5065423;28;20056;-56
2021/04/05 11:05:57;;;;;;;11.40;10.13;;;;;;;24.32;22.12;95905.97;5064897;28;20052;-55
2021/04/05 11:08:28;;;;;;;11.48;8.30;;;;;;;24.40;22.17;95911.47;5063609;28;20128;-55
2021/04/05 11:11:09;;;;;;;7.63;6.80;;;;;;;24.46;22.35;95901.97;5063974;28;20093;-54
2021/04/05 11:13:39;;;;;;;8.43;6.30;;;;;;;24.54;22.12;95902.34;5067639;28;20052;-55
2021/04/05 11:16:12;;;;;;;9.75;6.85;;;;;;;24.59;22.10;95905.72;5068018;28;20070;-55
2021/04/05 11:18:59;;;;;;;9.07;6.35;;;;;;;24.66;21.88;95900.56;5068523;28;20051;-54
2021/04/05 11:21:44;;;;;;;9.13;6.43;;;;;;;24.74;22.17;95896.19;5068259;28;20504;-55
2021/04/05 11:24:11;;;;;;;9.88;6.35;;;;;;;24.82;22.11;95894.59;5051597;28;20135;-53
2021/04/05 11:26:37;;;;;;;9.18;5.72;;;;;;;24.87;22.12;95889.78;5051453;28;20102;-53
2021/04/05 11:29:06;;;;;;;7.95;5.68;;;;;;;24.93;21.62;95884.94;5069169;28;20047;-53
2021/04/05 11:31:49;;;;;;;7.30;5.68;;;;;;;24.98;21.93;95884.75;5067286;28;20083;-54
2021/04/05 11:34:16;;;;;;;6.63;5.50;;;;;;;25.07;21.74;95877.31;5067853;28;20055;-53
2021/04/05 11:36:44;;;;;;;9.95;5.85;;;;;;;25.13;21.86;95871.69;5068968;28;20048;-54
2021/04/05 11:39:11;;;;;;;6.57;5.50;;;;;;;25.18;21.85;95872.31;5067144;28;20051;-53
2021/04/05 11:41:37;;;;;;;8.80;6.57;;;;;;;25.21;21.46;95857.97;5068324;28;20229;-53
2021/04/05 11:44:05;;;;;;;7.65;5.40;;;;;;;25.27;21.47;95861.34;5067811;28;20135;-53
2021/04/05 11:46:34;;;;;;;14.38;5.88;;;;;;;25.32;21.49;95863.91;5067274;28;20122;-53
2021/04/05 11:49:04;;;;;;;6.60;5.22;;;;;;;25.37;21.40;95852.78;5051349;28;20048;-53
2021/04/05 11:51:35;;;;;;;7.35;5.13;;;;;;;25.41;21.50;95847.44;5068637;28;20136;-54
2021/04/05 11:54:01;;;;;;;7.38;5.00;;;;;;;25.44;21.32;95835.81;5068694;28;20052;-60
2021/04/05 11:56:28;;;;;;;5.75;4.30;;;;;;;25.46;20.96;95833.56;5068990;28;20044;-58
2021/04/05 11:59:07;;;;;;;5.85;4.63;;;;;;;25.47;21.05;95838.69;5051211;28;20133;-55